Lusk, WY

12:37 AM MDT on May 27, 2015 (GMT -0600)
LEMS | | Change Station
CLOSE
Current Station
Personal Weather Station
Location: Lusk, WY
Elevation: 5070 ft
Nearby Weather Stations
Active Advisory: Flash Flood Warning

Elev 5070 ft 42.76 °N, 104.45 °W | Updated 26 seconds ago

Overcast
Overcast
53.2 °F
Feels Like 53.2 °F
N
3.0
Wind Variable Wind from SW
Gusts 4.0 mph

Today
High -- | Low -- °F
--% Chance of Precip.
Yesterday
High -- | Low -- °F
Precip. -- in
5:24 AM 8:25 PM
Waxing Gibbous, 64% visible
Pressure 29.94 in
Visibility 10.0 miles
Clouds Overcast 9000 ft
Dew Point 47 °F
Humidity 80%
Rainfall 0.00 in
Snow Depth Not available.
UV 0 out of 12
Pollen 7.10 out of 12
Air Quality Not available.
Flu Activity Sporadic
METAR KDGW 270553Z AUTO 29003KT 10SM OVC090 12/09 A3005 RMK AO2 RAE11 SLP136 P0000 60006 T01170094 10200 20117 51019

More Conditions Fewer Conditions

Pressure 29.94 in
Visibility 10.0 miles
Clouds Overcast 9000 ft
Dew Point 47 °F
Humidity 80%
Rainfall 0.00 in
Snow Depth Not available.
UV 0 out of 12
Pollen 7.10 out of 12
Air Quality Not available.
Flu Activity Sporadic
METAR KDGW 270553Z AUTO 29003KT 10SM OVC090 12/09 A3005 RMK AO2 RAE11 SLP136 P0000 60006 T01170094 10200 20117 51019

More Conditions Fewer Conditions

10-Day Weather Forecast

Almanac

Astronomy

May. 27, 2015 Rise Set
Actual Time
Civil Twilight
Nautical Twilight
Astronomical Twilight
Moon
Length of Visible Light
Length of Day
Tomorrow will be .
, % of the Moon is Illuminated

Today's Extremes

State Highs State Lows

Community

WunderPhotos

Upload Photos

1,824,619 photos uploaded!

WunderBlogs® & News

Nearby

Air Quality

  Air Quality AQ Index Pollutant
Not available.

Snow Depth

Station Depth Elevation

Earthquake Activity

City Distance Mag. Time & Date
Minimum magnitude displayed is 2.5.

Coastal Water Temperatures

Place Temperature

Stations

Nearby Weather Stations

Station Location Temp. Windchill Dew Point Humidity Wind Precip. Elev Updated Type
                   
Flash Flood Warning
Statement as of 10:45 PM MDT on May 26, 2015

The National Weather Service in Cheyenne has issued a

* Flash Flood Warning for...
west central Niobrara County in east central Wyoming...

* until 245 am MDT

* at 1041 PM MDT... Doppler radar indicated a thunderstorm producing
heavy rain across the warned area. 3 to 4 inches of rain have
occurred over a short period of time. Flash flooding is occurring.

Additional rainfall amounts of one half inch are possible in the
warned area.

Precautionary/preparedness actions...

Be especially cautious at night when it is harder to recognize the
dangers of flooding.


Lat... Lon 4306 10484 4323 10482 4322 10455 4305 10455


Sml